Time;durP1;ratioP1;P1;durP2;ratioP2;P2;SDS_P1;SDS_P2;PMS_P1;PMS_P2;Temp;Humidity;BMP_temperature;BMP_pressure;BME280_temperature;BME280_humidity;BME280_pressure;Samples;Min_cycle;Max_cycle;Signal;HPM_P1;HPM_P2
2023/07/24 00:01:13;;;;;;;5.85;4.00;;;18.10;99.90;;;;;;4939967;28;36673;-80
2023/07/24 00:03:39;;;;;;;4.75;3.40;;;18.10;99.90;;;;;;4948429;28;41235;-80
2023/07/24 00:06:05;;;;;;;7.47;3.80;;;18.10;99.90;;;;;;4955029;28;39123;-80
2023/07/24 00:08:32;;;;;;;5.43;3.80;;;18.10;99.90;;;;;;4941094;29;38537;-80
2023/07/24 00:10:58;;;;;;;5.22;3.38;;;18.10;99.90;;;;;;4940860;29;35985;-80
2023/07/24 00:13:24;;;;;;;3.53;3.13;;;18.10;99.90;;;;;;4955372;28;39130;-80
2023/07/24 00:15:57;;;;;;;4.47;3.22;;;18.10;99.90;;;;;;4942773;28;38246;-81
2023/07/24 00:18:36;;;;;;;5.38;3.90;;;18.10;99.90;;;;;;4950899;28;37902;-81
2023/07/24 00:21:03;;;;;;;4.60;3.60;;;18.20;99.90;;;;;;4966518;28;38653;-80
2023/07/24 00:23:29;;;;;;;3.92;3.25;;;18.20;99.90;;;;;;4939194;29;38520;-80
2023/07/24 00:25:56;;;;;;;4.28;3.53;;;18.20;99.90;;;;;;4937143;29;37207;-80
2023/07/24 00:28:32;;;;;;;4.25;3.58;;;18.10;99.90;;;;;;4946147;28;37797;-80
2023/07/24 00:30:58;;;;;;;5.05;3.90;;;18.10;99.90;;;;;;4966769;28;37719;-80
2023/07/24 00:33:25;;;;;;;3.85;3.25;;;18.10;99.90;;;;;;4936699;29;38998;-80
2023/07/24 00:35:56;;;;;;;4.18;3.75;;;18.10;99.90;;;;;;4938708;29;39062;-79
2023/07/24 00:38:23;;;;;;;3.88;3.30;;;18.00;99.90;;;;;;4952255;28;38326;-79
2023/07/24 00:40:50;;;;;;;5.10;3.80;;;18.10;99.90;;;;;;4952469;28;36461;-81
2023/07/24 00:43:19;;;;;;;6.07;3.70;;;18.10;99.90;;;;;;4952491;28;39015;-80
2023/07/24 00:45:47;;;;;;;6.13;4.15;;;18.10;99.90;;;;;;4953690;28;38551;-80
2023/07/24 00:48:15;;;;;;;5.57;3.55;;;18.00;99.90;;;;;;4951389;28;36573;-80
2023/07/24 00:50:43;;;;;;;4.68;3.80;;;17.90;99.90;;;;;;4952198;29;36002;-80
2023/07/24 00:53:12;;;;;;;4.13;3.72;;;17.90;99.90;;;;;;4950191;28;37873;-79
2023/07/24 00:55:39;;;;;;;4.70;3.55;;;17.90;99.90;;;;;;4948139;28;38390;-80
2023/07/24 00:58:06;;;;;;;4.30;3.58;;;17.90;99.90;;;;;;4950624;28;36904;-80
2023/07/24 01:03:08;;;;;;;6.32;3.78;;;17.90;99.90;;;;;;5172425;23;20726;-78
2023/07/24 01:05:34;;;;;;;5.60;3.65;;;17.90;99.90;;;;;;4910095;29;38534;-78
2023/07/24 01:08:00;;;;;;;4.28;3.75;;;17.90;99.90;;;;;;4912091;29;38717;-78
2023/07/24 01:10:26;;;;;;;6.35;3.83;;;17.90;99.90;;;;;;4915471;29;46538;-79
2023/07/24 01:13:02;;;;;;;4.13;3.40;;;17.90;99.90;;;;;;4916379;29;37771;-78
2023/07/24 01:15:36;;;;;;;5.72;4.07;;;18.00;99.90;;;;;;4927620;29;47263;-78
2023/07/24 01:18:15;;;;;;;4.55;3.85;;;18.00;99.90;;;;;;4912796;29;36668;-79
2023/07/24 01:20:50;;;;;;;5.07;3.72;;;18.00;99.90;;;;;;4912530;29;37531;-78
2023/07/24 01:23:45;;;;;;;6.70;3.80;;;18.00;99.90;;;;;;4911985;29;37541;-78
2023/07/24 01:26:12;;;;;;;6.10;3.88;;;17.90;99.90;;;;;;4913573;29;39386;-78
2023/07/24 01:28:39;;;;;;;5.07;3.92;;;17.90;99.90;;;;;;4910964;29;38734;-78
2023/07/24 01:31:05;;;;;;;6.72;4.15;;;17.90;99.90;;;;;;4918637;29;37121;-79
2023/07/24 01:33:35;;;;;;;7.35;4.55;;;17.90;99.90;;;;;;4912184;29;37943;-79
2023/07/24 01:36:03;;;;;;;7.38;4.35;;;17.90;99.90;;;;;;4912303;29;38365;-79
2023/07/24 01:38:33;;;;;;;5.95;4.30;;;18.00;99.90;;;;;;4911495;29;47344;-79
2023/07/24 01:41:00;;;;;;;5.78;4.82;;;17.90;99.90;;;;;;4911526;29;38239;-79
2023/07/24 01:43:28;;;;;;;7.05;5.70;;;17.90;99.90;;;;;;4913071;29;39822;-79
2023/07/24 01:45:54;;;;;;;6.10;5.15;;;18.00;99.90;;;;;;4911495;29;39832;-79
2023/07/24 01:48:20;;;;;;;7.85;6.63;;;18.00;99.90;;;;;;4910084;29;38940;-79
2023/07/24 01:50:49;;;;;;;8.13;6.10;;;17.90;99.90;;;;;;4910999;29;36776;-79
2023/07/24 01:53:16;;;;;;;9.63;5.97;;;17.90;99.90;;;;;;4908840;29;39103;-79
2023/07/24 01:55:42;;;;;;;8.63;6.40;;;17.80;99.90;;;;;;4911625;29;40233;-78
2023/07/24 01:58:08;;;;;;;9.20;7.13;;;17.80;99.90;;;;;;4910929;29;37961;-79
2023/07/24 02:00:34;;;;;;;9.25;6.55;;;17.90;99.90;;;;;;4915170;29;37921;-79
2023/07/24 02:03:00;;;;;;;9.25;7.20;;;17.80;99.90;;;;;;4910893;29;39887;-79
2023/07/24 02:05:30;;;;;;;14.02;7.95;;;17.80;99.90;;;;;;4906808;29;46461;-78
2023/07/24 02:07:56;;;;;;;10.77;7.38;;;17.80;99.90;;;;;;4926085;28;38595;-81
2023/07/24 02:10:22;;;;;;;11.52;7.30;;;17.70;99.90;;;;;;4913319;29;37042;-79
2023/07/24 02:12:48;;;;;;;11.50;7.32;;;17.80;99.90;;;;;;4915526;29;40201;-79
2023/07/24 02:15:14;;;;;;;10.68;7.13;;;17.70;99.90;;;;;;4926166;29;39707;-79
2023/07/24 02:17:42;;;;;;;9.15;6.75;;;17.60;99.90;;;;;;4911290;29;39773;-79
2023/07/24 02:20:08;;;;;;;9.30;7.50;;;17.60;99.90;;;;;;4927424;29;37954;-79
2023/07/24 02:22:35;;;;;;;9.85;6.90;;;17.60;99.90;;;;;;4914957;29;37845;-79
2023/07/24 02:25:01;;;;;;;8.07;6.47;;;17.60;99.90;;;;;;4926639;29;39357;-78
2023/07/24 02:27:31;;;;;;;10.38;7.30;;;17.50;99.90;;;;;;4920631;29;38827;-79
2023/07/24 02:29:57;;;;;;;11.00;6.88;;;17.50;99.90;;;;;;4915501;29;37415;-79
2023/07/24 02:32:24;;;;;;;11.15;6.70;;;17.60;99.90;;;;;;4910053;29;39547;-79
2023/07/24 02:34:51;;;;;;;7.90;6.72;;;17.60;99.90;;;;;;4905782;29;37794;-79
2023/07/24 02:37:17;;;;;;;8.10;5.85;;;17.60;99.90;;;;;;4901903;29;38301;-79
2023/07/24 02:39:44;;;;;;;10.43;6.07;;;17.60;99.90;;;;;;4911577;29;38153;-78
2023/07/24 02:42:10;;;;;;;7.43;5.78;;;17.60;99.90;;;;;;4910710;29;40235;-79
2023/07/24 02:44:36;;;;;;;8.25;6.30;;;17.60;99.90;;;;;;4912862;29;38244;-78
2023/07/24 02:47:03;;;;;;;8.40;6.00;;;17.60;99.90;;;;;;4895275;29;38231;-77
2023/07/24 02:49:29;;;;;;;10.02;6.18;;;17.60;99.90;;;;;;4912681;29;37168;-78
2023/07/24 02:51:55;;;;;;;7.78;6.00;;;17.60;99.90;;;;;;4912790;29;40331;-77
2023/07/24 02:54:21;;;;;;;7.90;6.03;;;17.60;99.90;;;;;;4913215;29;39913;-78
2023/07/24 02:56:47;;;;;;;7.88;5.72;;;17.70;99.90;;;;;;4924866;29;38990;-78
2023/07/24 02:59:13;;;;;;;9.23;5.75;;;17.60;99.90;;;;;;4907632;29;38025;-78
2023/07/24 03:01:39;;;;;;;9.23;6.95;;;17.60;99.90;;;;;;4910069;29;40728;-79
2023/07/24 03:04:06;;;;;;;10.93;7.18;;;17.60;99.90;;;;;;4910482;29;37391;-79
2023/07/24 03:06:32;;;;;;;8.98;6.78;;;17.70;99.90;;;;;;4926392;29;37960;-79
2023/07/24 03:08:58;;;;;;;7.43;6.03;;;17.70;99.90;;;;;;4908000;29;36453;-78
2023/07/24 03:11:24;;;;;;;11.45;6.72;;;17.70;99.90;;;;;;4914193;29;39675;-78
2023/07/24 03:13:50;;;;;;;9.57;7.18;;;17.70;99.90;;;;;;4915455;29;39603;-77
2023/07/24 03:16:20;;;;;;;11.10;8.02;;;17.70;99.90;;;;;;4916849;29;38697;-77
2023/07/24 03:18:47;;;;;;;9.65;7.30;;;17.70;99.90;;;;;;4914800;29;37778;-77
2023/07/24 03:21:13;;;;;;;10.52;7.13;;;17.70;99.90;;;;;;4912806;29;37825;-78
2023/07/24 03:23:39;;;;;;;10.70;7.50;;;17.70;99.90;;;;;;4913504;29;39207;-78
2023/07/24 03:26:05;;;;;;;12.65;7.93;;;17.70;99.90;;;;;;4913568;29;38950;-77
2023/07/24 03:28:31;;;;;;;13.77;8.52;;;17.60;99.90;;;;;;4927036;29;37457;-78
2023/07/24 03:30:57;;;;;;;12.10;7.18;;;17.70;99.90;;;;;;4914036;29;39039;-78
2023/07/24 03:33:24;;;;;;;10.55;7.40;;;17.70;99.90;;;;;;4914056;29;38821;-77
2023/07/24 03:35:50;;;;;;;12.02;8.00;;;17.70;99.90;;;;;;4913400;28;38113;-77
2023/07/24 03:38:16;;;;;;;13.00;7.38;;;17.70;99.90;;;;;;4902787;29;38910;-78
2023/07/24 03:40:42;;;;;;;11.55;7.35;;;17.70;99.90;;;;;;4912911;29;39184;-77
2023/07/24 03:43:08;;;;;;;10.50;6.82;;;17.70;99.90;;;;;;4914062;29;38978;-78
2023/07/24 03:45:35;;;;;;;12.45;7.15;;;17.70;99.90;;;;;;4929745;29;36673;-78
2023/07/24 03:48:01;;;;;;;8.85;6.88;;;17.60;99.90;;;;;;4927875;29;37640;-77
2023/07/24 03:50:29;;;;;;;9.10;6.63;;;17.60;99.90;;;;;;4915878;29;38871;-77
2023/07/24 03:52:55;;;;;;;10.85;6.97;;;17.70;99.90;;;;;;4917463;29;39101;-78
2023/07/24 03:55:21;;;;;;;10.88;6.70;;;17.70;99.90;;;;;;4913300;29;37066;-77
2023/07/24 03:57:47;;;;;;;12.85;7.47;;;17.60;99.90;;;;;;4916376;29;37932;-77
2023/07/24 04:00:14;;;;;;;10.43;6.40;;;17.60;99.90;;;;;;4914211;29;40046;-77
2023/07/24 04:02:40;;;;;;;10.95;6.78;;;17.60;99.90;;;;;;4922250;29;38825;-77
2023/07/24 04:05:06;;;;;;;11.13;6.60;;;17.60;99.90;;;;;;4913590;29;36987;-77
2023/07/24 04:07:32;;;;;;;13.00;7.53;;;17.50;99.90;;;;;;4917055;29;37632;-78
2023/07/24 04:09:59;;;;;;;10.38;6.70;;;17.50;99.90;;;;;;4914808;29;37633;-78
2023/07/24 04:12:25;;;;;;;8.93;5.93;;;17.50;99.90;;;;;;4914738;29;39200;-77
2023/07/24 04:14:51;;;;;;;11.13;6.15;;;17.50;99.90;;;;;;4926386;29;37164;-77
2023/07/24 04:17:17;;;;;;;9.27;6.22;;;17.50;99.90;;;;;;4914265;29;38226;-77
2023/07/24 04:19:43;;;;;;;13.88;7.03;;;17.50;99.90;;;;;;4929286;29;38616;-78
2023/07/24 04:22:09;;;;;;;10.55;6.63;;;17.40;99.90;;;;;;4912257;29;39140;-78
2023/07/24 04:24:35;;;;;;;10.30;6.07;;;17.40;99.90;;;;;;4916227;29;37800;-79
2023/07/24 04:27:02;;;;;;;11.90;5.72;;;17.40;99.90;;;;;;4899999;29;37705;-78
2023/07/24 04:29:28;;;;;;;15.90;6.55;;;17.40;99.90;;;;;;4911201;29;37873;-78
2023/07/24 04:31:54;;;;;;;11.00;6.00;;;17.40;99.90;;;;;;4924082;28;39134;-79
2023/07/24 04:34:20;;;;;;;8.68;5.78;;;17.40;99.90;;;;;;4915244;29;37862;-79
2023/07/24 04:36:46;;;;;;;12.82;6.28;;;17.40;99.90;;;;;;4911708;29;37174;-78
2023/07/24 04:39:12;;;;;;;10.77;5.78;;;17.30;99.90;;;;;;4930080;29;37688;-78
2023/07/24 04:41:39;;;;;;;14.93;5.90;;;17.30;99.90;;;;;;4915077;29;39032;-79
2023/07/24 04:44:05;;;;;;;9.13;5.20;;;17.30;99.90;;;;;;4912800;29;38860;-79
2023/07/24 04:46:31;;;;;;;10.98;5.43;;;17.30;99.90;;;;;;4908133;29;37304;-78
2023/07/24 04:48:57;;;;;;;10.80;5.35;;;17.40;99.90;;;;;;4922626;28;39539;-78
2023/07/24 04:51:24;;;;;;;11.75;5.38;;;17.40;99.90;;;;;;4902071;29;38122;-78
2023/07/24 04:53:50;;;;;;;7.78;5.40;;;17.40;99.90;;;;;;4913024;29;38197;-78
2023/07/24 04:56:16;;;;;;;12.02;5.63;;;17.40;99.90;;;;;;4910876;29;37132;-78
2023/07/24 04:58:42;;;;;;;10.50;5.45;;;17.40;99.90;;;;;;4915649;29;39244;-77
2023/07/24 05:01:09;;;;;;;11.85;5.32;;;17.40;99.90;;;;;;4900778;29;40324;-78
2023/07/24 05:03:35;;;;;;;10.48;5.03;;;17.40;99.90;;;;;;4912073;29;38008;-78
2023/07/24 05:06:01;;;;;;;8.75;4.70;;;17.40;99.90;;;;;;4911938;29;37882;-78
2023/07/24 05:08:28;;;;;;;10.50;5.28;;;17.30;99.90;;;;;;4907474;29;47075;-77
2023/07/24 05:10:58;;;;;;;15.50;5.35;;;17.30;99.90;;;;;;4915308;29;39251;-78
2023/07/24 05:13:28;;;;;;;8.77;4.50;;;17.30;99.90;;;;;;4915158;29;38683;-79
2023/07/24 05:15:54;;;;;;;8.40;4.28;;;17.30;99.90;;;;;;4911266;29;39119;-78
2023/07/24 05:18:20;;;;;;;8.05;5.05;;;17.30;99.90;;;;;;4930845;29;40588;-77
2023/07/24 05:20:48;;;;;;;10.80;4.70;;;17.30;99.90;;;;;;4943963;29;37679;-77
2023/07/24 05:23:14;;;;;;;9.50;4.50;;;17.20;99.90;;;;;;4908359;29;37594;-78
2023/07/24 05:25:41;;;;;;;8.15;4.53;;;17.20;99.90;;;;;;4911015;29;37265;-77
2023/07/24 05:28:07;;;;;;;9.93;4.38;;;17.30;99.90;;;;;;4910345;29;39386;-80
2023/07/24 05:30:33;;;;;;;8.63;4.20;;;17.30;99.90;;;;;;4916031;29;38844;-78
2023/07/24 05:33:00;;;;;;;10.13;5.25;;;17.30;99.90;;;;;;4912361;29;38640;-77
2023/07/24 05:35:26;;;;;;;12.45;5.00;;;17.50;99.90;;;;;;4913914;29;37398;-78
2023/07/24 05:37:52;;;;;;;8.88;4.72;;;17.60;99.90;;;;;;4912290;29;37349;-77
2023/07/24 05:40:18;;;;;;;11.57;5.00;;;17.80;99.90;;;;;;4915355;29;38603;-78
2023/07/24 05:42:46;;;;;;;10.70;5.05;;;17.80;99.90;;;;;;4912128;29;40005;-78
2023/07/24 05:45:14;;;;;;;9.70;4.88;;;18.00;99.90;;;;;;4918311;29;36877;-78
2023/07/24 05:47:40;;;;;;;9.18;4.68;;;18.20;99.90;;;;;;4911986;29;37731;-78
2023/07/24 05:50:07;;;;;;;8.32;4.80;;;18.30;99.90;;;;;;4913321;29;37288;-79
2023/07/24 05:52:33;;;;;;;15.80;5.38;;;18.30;99.90;;;;;;4911518;29;39028;-79
2023/07/24 05:54:59;;;;;;;13.32;5.20;;;18.30;99.90;;;;;;4909703;29;38664;-78
2023/07/24 05:57:25;;;;;;;11.98;5.43;;;18.10;99.90;;;;;;4910532;29;40567;-78
2023/07/24 05:59:52;;;;;;;9.07;4.38;;;18.20;99.90;;;;;;4912410;29;39663;-78
2023/07/24 06:02:18;;;;;;;9.13;4.15;;;18.50;99.90;;;;;;4912330;29;39624;-78
2023/07/24 06:04:44;;;;;;;9.88;4.72;;;18.70;99.90;;;;;;4931781;28;37066;-79
2023/07/24 06:07:10;;;;;;;9.63;3.95;;;18.90;99.90;;;;;;4931465;29;38460;-79
2023/07/24 06:09:36;;;;;;;9.50;4.82;;;18.80;99.90;;;;;;4919976;29;38937;-79
2023/07/24 06:12:03;;;;;;;12.23;3.97;;;18.80;99.90;;;;;;4932149;29;38466;-78
2023/07/24 06:14:29;;;;;;;10.68;4.10;;;18.70;99.90;;;;;;4916072;29;38059;-79
2023/07/24 06:16:55;;;;;;;7.55;4.18;;;18.60;99.90;;;;;;4918845;29;39817;-78
2023/07/24 06:19:21;;;;;;;8.90;4.03;;;18.60;99.90;;;;;;4915427;29;39933;-77
2023/07/24 06:21:47;;;;;;;10.45;4.30;;;18.80;99.90;;;;;;4917348;29;39486;-78
2023/07/24 06:24:13;;;;;;;10.27;4.20;;;19.10;99.90;;;;;;4913214;29;36985;-78
2023/07/24 06:26:40;;;;;;;9.65;4.15;;;19.10;99.90;;;;;;4912969;29;39565;-78
2023/07/24 06:29:06;;;;;;;9.07;4.45;;;19.10;99.90;;;;;;4931928;29;39184;-78
2023/07/24 06:31:35;;;;;;;10.90;4.28;;;19.00;99.90;;;;;;4932261;28;38889;-78
2023/07/24 06:34:01;;;;;;;9.35;4.63;;;18.90;99.90;;;;;;4943584;28;37916;-78
2023/07/24 06:36:27;;;;;;;13.65;4.25;;;18.90;99.90;;;;;;4915846;29;47234;-79
2023/07/24 06:38:54;;;;;;;13.05;4.15;;;18.80;99.90;;;;;;4914851;29;37749;-79
2023/07/24 06:41:22;;;;;;;13.65;4.25;;;18.70;99.90;;;;;;4927005;28;38379;-78
2023/07/24 06:43:49;;;;;;;14.18;4.28;;;18.70;99.90;;;;;;4916713;29;38100;-79
2023/07/24 06:46:15;;;;;;;12.13;4.90;;;18.80;99.90;;;;;;4926417;28;40870;-79
2023/07/24 06:48:41;;;;;;;11.70;4.55;;;18.80;99.90;;;;;;4940111;28;39979;-78
2023/07/24 06:51:07;;;;;;;15.90;5.65;;;18.80;99.90;;;;;;4933574;29;37879;-78
2023/07/24 06:53:34;;;;;;;12.15;4.75;;;18.80;99.90;;;;;;4921826;29;36324;-78
2023/07/24 06:56:00;;;;;;;12.52;5.75;;;18.70;99.90;;;;;;4943319;28;39379;-80
2023/07/24 06:58:26;;;;;;;10.48;5.65;;;18.60;99.90;;;;;;4916010;29;41800;-79
2023/07/24 07:00:52;;;;;;;9.85;5.32;;;18.60;99.90;;;;;;4916074;29;36984;-79
2023/07/24 07:03:18;;;;;;;12.40;5.85;;;18.50;99.90;;;;;;4928838;28;37920;-80
2023/07/24 07:05:45;;;;;;;12.40;6.30;;;18.40;99.90;;;;;;4918871;29;42695;-80
2023/07/24 07:08:11;;;;;;;10.13;5.60;;;18.30;99.90;;;;;;4931184;28;36496;-79
2023/07/24 07:10:39;;;;;;;11.63;6.45;;;18.40;99.90;;;;;;4933792;28;39034;-80
2023/07/24 07:13:05;;;;;;;10.90;5.97;;;18.40;99.90;;;;;;4922095;28;37971;-79
2023/07/24 07:15:31;;;;;;;9.55;6.15;;;18.40;99.90;;;;;;4931525;28;37611;-79
2023/07/24 07:17:57;;;;;;;11.25;6.60;;;18.40;99.90;;;;;;4916702;29;38316;-79
2023/07/24 07:20:24;;;;;;;12.10;6.40;;;18.30;99.90;;;;;;4929562;29;38122;-79
2023/07/24 07:22:50;;;;;;;9.40;5.75;;;18.30;99.90;;;;;;4931339;29;37032;-80
2023/07/24 07:25:16;;;;;;;12.18;6.97;;;18.30;99.90;;;;;;4924093;29;37786;-79
2023/07/24 07:27:42;;;;;;;11.73;7.13;;;18.30;99.90;;;;;;4923197;29;37788;-80
2023/07/24 07:30:09;;;;;;;10.68;6.45;;;18.10;99.90;;;;;;4929633;28;39915;-80
2023/07/24 07:32:35;;;;;;;10.32;6.97;;;18.30;99.90;;;;;;4931043;29;37065;-80
2023/07/24 07:35:03;;;;;;;11.20;7.13;;;18.40;99.90;;;;;;4934144;28;40465;-80
2023/07/24 07:37:29;;;;;;;7.53;5.65;;;18.70;99.90;;;;;;4930182;28;48265;-79
2023/07/24 07:39:55;;;;;;;13.00;6.75;;;18.80;99.90;;;;;;4931945;29;38346;-80
2023/07/24 07:42:21;;;;;;;11.68;6.05;;;19.10;99.90;;;;;;4918777;28;38191;-79
2023/07/24 07:44:47;;;;;;;13.20;6.13;;;19.20;99.90;;;;;;4923421;29;39850;-79
2023/07/24 07:47:13;;;;;;;12.30;5.95;;;19.40;99.90;;;;;;4913935;29;39241;-79
2023/07/24 07:49:40;;;;;;;14.65;6.43;;;19.50;99.90;;;;;;4921626;29;39490;-80
2023/07/24 07:52:06;;;;;;;11.25;6.03;;;19.30;99.90;;;;;;4917952;29;38815;-80
2023/07/24 07:54:32;;;;;;;10.27;5.55;;;19.40;99.90;;;;;;4916630;29;40254;-79
2023/07/24 07:56:58;;;;;;;10.27;5.20;;;19.70;99.90;;;;;;4916254;29;39226;-80
2023/07/24 07:59:24;;;;;;;10.45;5.80;;;19.60;99.90;;;;;;4918305;28;38875;-80
2023/07/24 08:01:50;;;;;;;9.13;5.43;;;19.50;99.90;;;;;;4917865;29;37761;-81
2023/07/24 08:04:18;;;;;;;13.15;4.72;;;19.40;99.90;;;;;;4924334;29;37688;-81
2023/07/24 08:06:44;;;;;;;14.95;6.25;;;19.40;99.90;;;;;;4918825;29;40131;-81
2023/07/24 08:09:10;;;;;;;13.20;5.32;;;19.50;99.90;;;;;;4917848;29;37170;-81
2023/07/24 08:11:36;;;;;;;13.65;5.32;;;19.30;99.90;;;;;;4934212;28;37939;-80
2023/07/24 08:14:02;;;;;;;10.85;5.45;;;19.20;99.90;;;;;;4918170;29;39644;-81
2023/07/24 08:16:29;;;;;;;10.77;5.15;;;19.10;99.90;;;;;;4925959;29;37686;-80
2023/07/24 08:18:55;;;;;;;11.65;5.93;;;19.10;99.90;;;;;;4932186;29;39880;-77
2023/07/24 08:21:21;;;;;;;10.80;5.22;;;19.00;99.90;;;;;;4932133;28;39310;-78
2023/07/24 08:23:47;;;;;;;12.30;4.93;;;19.00;99.90;;;;;;4916864;29;39207;-79
2023/07/24 08:26:13;;;;;;;9.32;5.22;;;19.20;99.90;;;;;;4936694;28;38809;-79
2023/07/24 08:28:42;;;;;;;8.80;4.43;;;19.80;99.90;;;;;;4929526;29;39358;-80
2023/07/24 08:31:08;;;;;;;10.98;4.43;;;20.40;99.90;;;;;;4924932;28;39086;-80
2023/07/24 08:33:34;;;;;;;9.75;4.75;;;20.30;99.90;;;;;;4932903;29;39672;-79
2023/07/24 08:36:06;;;;;;;11.18;5.20;;;20.00;99.90;;;;;;4925777;29;38647;-80
2023/07/24 08:38:33;;;;;;;9.52;5.07;;;19.90;99.90;;;;;;4920178;29;47229;-80
2023/07/24 08:41:10;;;;;;;13.63;5.60;;;19.90;99.90;;;;;;4926383;29;38443;-80
2023/07/24 08:43:38;;;;;;;14.88;6.00;;;19.70;99.90;;;;;;4930277;28;48579;-79
2023/07/24 08:46:05;;;;;;;11.35;6.00;;;19.50;99.90;;;;;;4928317;28;37910;-79
2023/07/24 08:48:35;;;;;;;9.80;5.18;;;19.50;99.90;;;;;;4913473;29;39526;-80
2023/07/24 08:51:03;;;;;;;10.55;4.53;;;19.60;99.90;;;;;;4931504;29;37009;-80
2023/07/24 08:53:33;;;;;;;10.50;5.10;;;19.90;99.90;;;;;;4920455;29;38664;-81
2023/07/24 08:56:01;;;;;;;10.52;4.93;;;20.10;99.90;;;;;;4934182;28;38713;-80
2023/07/24 08:58:31;;;;;;;11.18;4.78;;;20.30;99.90;;;;;;4916576;29;48361;-80
2023/07/24 09:00:58;;;;;;;9.05;4.43;;;20.50;99.90;;;;;;4933667;29;37999;-80
2023/07/24 09:03:24;;;;;;;8.65;4.55;;;20.70;99.90;;;;;;4917987;28;40671;-79
2023/07/24 09:05:51;;;;;;;9.15;4.43;;;20.90;99.90;;;;;;4915305;29;40076;-80
2023/07/24 09:08:27;;;;;;;9.25;5.22;;;21.10;99.90;;;;;;4918102;28;39783;-79
2023/07/24 09:10:53;;;;;;;9.05;5.90;;;21.20;99.90;;;;;;4933682;29;37217;-79
2023/07/24 09:13:19;;;;;;;9.48;4.88;;;21.40;99.90;;;;;;4914626;29;39693;-79
2023/07/24 09:15:46;;;;;;;11.38;4.75;;;21.60;99.90;;;;;;4916777;29;38552;-78
2023/07/24 09:18:13;;;;;;;10.60;4.00;;;21.30;99.90;;;;;;4923843;28;36905;-80
2023/07/24 09:20:43;;;;;;;7.57;3.67;;;21.30;99.90;;;;;;4933326;29;37793;-79
2023/07/24 09:23:10;;;;;;;9.95;4.35;;;21.70;99.90;;;;;;4913206;29;40421;-79
2023/07/24 09:25:40;;;;;;;8.98;4.82;;;21.40;99.90;;;;;;4934000;28;38078;-79
2023/07/24 09:28:14;;;;;;;13.23;6.53;;;21.10;99.90;;;;;;4903507;29;38659;-81
2023/07/24 09:30:41;;;;;;;11.73;5.63;;;20.50;99.90;;;;;;4931733;28;38078;-79
2023/07/24 09:33:08;;;;;;;10.45;6.80;;;20.30;99.90;;;;;;4932178;29;39648;-79
2023/07/24 09:35:34;;;;;;;13.23;6.20;;;19.90;99.90;;;;;;4918250;29;39002;-80
2023/07/24 09:38:06;;;;;;;14.10;6.32;;;19.80;99.90;;;;;;4918123;29;39825;-82
2023/07/24 09:40:39;;;;;;;;;;;20.00;99.90;;;;;;4910746;29;48354;-81
2023/07/24 09:43:19;;;;;;;9.45;3.83;;;20.20;99.90;;;;;;4932538;28;38511;-81
2023/07/24 09:45:47;;;;;;;9.52;3.70;;;20.20;99.90;;;;;;4932811;29;39177;-82
2023/07/24 09:48:14;;;;;;;10.48;4.60;;;20.00;99.90;;;;;;4918293;29;39697;-82
2023/07/24 09:50:54;;;;;;;13.02;4.72;;;19.90;99.90;;;;;;4913673;29;37622;-79
2023/07/24 09:53:22;;;;;;;7.35;3.97;;;19.60;99.90;;;;;;4930218;28;40619;-79
2023/07/24 09:55:58;;;;;;;9.05;4.65;;;19.00;99.90;;;;;;4927566;29;38730;-79
2023/07/24 09:58:25;;;;;;;12.50;4.78;;;18.60;99.90;;;;;;4932116;28;37867;-79
2023/07/24 10:00:53;;;;;;;10.15;5.30;;;18.50;99.90;;;;;;4923831;29;39209;-79
2023/07/24 10:03:21;;;;;;;7.72;4.88;;;18.50;99.90;;;;;;4915432;28;38100;-79
2023/07/24 10:05:48;;;;;;;15.13;5.93;;;18.60;99.90;;;;;;4921298;29;37329;-79
2023/07/24 10:08:16;;;;;;;6.53;5.05;;;19.10;99.90;;;;;;4933005;28;38566;-78
2023/07/24 10:10:42;;;;;;;9.20;4.97;;;19.90;99.90;;;;;;4928433;29;40179;-78
2023/07/24 10:13:11;;;;;;;12.85;4.53;;;20.40;99.90;;;;;;4929687;29;39833;-78
2023/07/24 10:15:38;;;;;;;9.70;4.63;;;20.30;99.90;;;;;;4916537;29;40198;-79
2023/07/24 10:18:06;;;;;;;7.60;3.42;;;20.70;99.90;;;;;;4931062;29;37867;-77
2023/07/24 10:20:38;;;;;;;6.30;3.25;;;20.90;99.90;;;;;;4913611;29;39029;-78
2023/07/24 10:23:06;;;;;;;10.10;3.70;;;20.70;99.90;;;;;;4930585;29;39632;-78
2023/07/24 10:25:33;;;;;;;7.97;3.58;;;20.60;99.90;;;;;;4930707;29;38077;-78
2023/07/24 10:28:07;;;;;;;4.75;3.20;;;20.50;99.90;;;;;;4924774;29;38799;-78
2023/07/24 10:30:37;;;;;;;6.95;3.53;;;20.30;99.90;;;;;;4915398;29;47151;-78
2023/07/24 10:33:05;;;;;;;6.63;3.58;;;20.40;99.90;;;;;;4932225;28;40151;-79
2023/07/24 10:35:52;;;;;;;6.53;3.00;;;20.40;99.90;;;;;;4917722;29;37636;-78
2023/07/24 10:38:19;;;;;;;11.88;3.50;;;20.30;99.90;;;;;;4931419;28;38118;-79
2023/07/24 10:40:48;;;;;;;8.35;3.55;;;20.60;99.90;;;;;;4938063;28;38883;-79
2023/07/24 10:43:18;;;;;;;5.07;3.08;;;20.60;99.90;;;;;;4919513;28;39768;-79
2023/07/24 10:45:52;;;;;;;7.00;3.72;;;20.30;99.90;;;;;;4930724;29;38214;-78
2023/07/24 10:48:24;;;;;;;4.90;3.38;;;20.00;99.90;;;;;;4926994;29;38354;-79
2023/07/24 10:50:51;;;;;;;6.65;3.13;;;20.40;99.90;;;;;;4914703;29;37979;-79
2023/07/24 10:53:20;;;;;;;4.65;3.10;;;20.90;99.90;;;;;;4931647;29;38491;-78
2023/07/24 10:55:50;;;;;;;6.72;3.35;;;20.80;99.90;;;;;;4932272;28;38551;-78
2023/07/24 10:58:17;;;;;;;7.40;4.22;;;20.50;99.90;;;;;;4917995;29;36930;-78
2023/07/24 11:00:44;;;;;;;9.30;4.18;;;20.30;99.90;;;;;;4931009;29;37403;-78
2023/07/24 11:03:11;;;;;;;6.30;4.03;;;20.00;99.90;;;;;;4917409;29;40518;-79
2023/07/24 11:05:42;;;;;;;5.60;3.47;;;19.90;99.90;;;;;;4921293;29;38076;-79
2023/07/24 11:08:16;;;;;;;6.43;3.55;;;19.80;99.90;;;;;;4925104;28;38752;-79
2023/07/24 11:10:53;;;;;;;8.20;3.45;;;19.80;99.90;;;;;;4920038;29;38138;-78
2023/07/24 11:13:27;;;;;;;11.27;3.67;;;19.90;99.90;;;;;;4916234;29;38883;-79
2023/07/24 11:15:54;;;;;;;5.93;3.60;;;19.90;99.90;;;;;;4924488;29;37090;-79
2023/07/24 11:18:22;;;;;;;4.15;3.55;;;20.10;99.90;;;;;;4931442;29;38803;-79
2023/07/24 11:20:54;;;;;;;9.38;4.90;;;20.40;99.90;;;;;;4916087;29;36410;-79
2023/07/24 11:23:21;;;;;;;6.75;4.60;;;20.40;99.90;;;;;;4930592;29;38450;-78
2023/07/24 11:25:54;;;;;;;6.82;3.92;;;20.10;99.90;;;;;;4935559;28;37325;-79
2023/07/24 11:28:20;;;;;;;6.80;3.80;;;20.10;99.90;;;;;;4930959;29;38668;-79
2023/07/24 11:30:46;;;;;;;5.85;3.50;;;20.00;99.90;;;;;;4913875;29;36272;-78
2023/07/24 11:33:15;;;;;;;8.18;4.35;;;20.00;99.90;;;;;;4917224;29;37997;-78
2023/07/24 11:35:42;;;;;;;11.93;4.90;;;19.90;99.90;;;;;;4916737;29;37440;-78
2023/07/24 11:38:11;;;;;;;5.68;5.05;;;19.70;99.90;;;;;;4931910;29;39109;-78
2023/07/24 11:40:47;;;;;;;8.07;4.80;;;19.60;99.90;;;;;;4934217;29;37248;-78
2023/07/24 11:43:18;;;;;;;4.68;3.72;;;19.40;99.90;;;;;;4921148;29;37873;-78
2023/07/24 11:45:46;;;;;;;8.70;5.05;;;19.60;99.90;;;;;;4916506;29;37258;-78
2023/07/24 11:48:13;;;;;;;6.05;4.25;;;19.70;99.90;;;;;;4912321;29;36811;-78
2023/07/24 11:50:44;;;;;;;5.25;3.53;;;20.10;99.90;;;;;;4923847;29;36511;-78
2023/07/24 11:53:29;;;;;;;4.30;3.85;;;20.30;99.90;;;;;;4933765;28;38704;-78
2023/07/24 11:55:59;;;;;;;5.95;3.55;;;20.40;99.90;;;;;;4915782;29;37351;-78
2023/07/24 11:58:27;;;;;;;8.15;4.35;;;20.50;99.90;;;;;;4925665;28;38576;-78
2023/07/24 12:00:54;;;;;;;6.72;4.80;;;20.50;99.90;;;;;;4931908;28;38180;-78
2023/07/24 12:03:22;;;;;;;6.80;4.80;;;20.30;99.90;;;;;;4932800;29;38450;-78
2023/07/24 12:05:48;;;;;;;6.50;4.10;;;20.30;99.90;;;;;;4921343;29;38501;-78
2023/07/24 12:08:15;;;;;;;5.72;4.47;;;20.40;99.90;;;;;;4934826;28;37106;-79
2023/07/24 12:10:41;;;;;;;7.80;4.93;;;20.60;99.90;;;;;;4938885;28;37563;-78
2023/07/24 12:13:07;;;;;;;6.60;4.88;;;21.30;99.90;;;;;;4921360;29;39354;-77
2023/07/24 12:15:35;;;;;;;6.45;5.05;;;21.80;99.90;;;;;;4926628;29;37545;-78
2023/07/24 12:18:04;;;;;;;6.18;4.53;;;21.80;99.90;;;;;;4935045;28;38695;-78
2023/07/24 12:20:31;;;;;;;7.18;4.32;;;21.60;99.90;;;;;;4933738;29;48900;-76
2023/07/24 12:22:57;;;;;;;5.47;4.90;;;21.40;99.90;;;;;;4934002;29;39405;-78
2023/07/24 12:25:24;;;;;;;6.28;4.97;;;21.00;99.90;;;;;;4934535;28;38188;-78
2023/07/24 12:27:50;;;;;;;6.35;5.10;;;20.60;99.90;;;;;;4934013;29;38071;-78
2023/07/24 12:30:16;;;;;;;9.55;6.10;;;20.40;99.90;;;;;;4920734;29;37577;-78
2023/07/24 12:32:42;;;;;;;9.43;5.90;;;20.10;99.90;;;;;;4917616;29;40651;-78
2023/07/24 12:35:09;;;;;;;7.43;5.43;;;20.20;99.90;;;;;;4933938;28;38349;-79
2023/07/24 12:37:36;;;;;;;8.27;6.22;;;20.00;99.90;;;;;;4932905;28;38805;-78
2023/07/24 12:40:02;;;;;;;7.85;5.70;;;19.90;99.90;;;;;;4903624;29;37706;-79
2023/07/24 12:42:30;;;;;;;10.70;6.75;;;19.90;99.90;;;;;;4934884;28;38206;-79
2023/07/24 12:44:57;;;;;;;8.23;5.53;;;20.00;99.90;;;;;;4935896;28;38669;-79
2023/07/24 12:47:24;;;;;;;8.07;6.25;;;19.90;99.90;;;;;;4935530;29;37643;-79